createdAt,value
2019-04-10T00:00:24.416Z,8.5
2019-04-10T00:03:35.698Z,8.4
2019-04-10T00:06:18.649Z,8.5
2019-04-10T00:09:10.570Z,8.5
2019-04-10T00:12:05.743Z,8.4
2019-04-10T00:15:00.749Z,8.5
2019-04-10T00:17:56.018Z,8.4
2019-04-10T00:20:51.065Z,8.4
2019-04-10T00:23:45.164Z,8.4
2019-04-10T00:26:40.259Z,8.4
2019-04-10T00:29:36.281Z,8.4
2019-04-10T00:32:30.547Z,8.3
2019-04-10T00:35:25.971Z,8.3
2019-04-10T00:38:21.563Z,8.3
2019-04-10T00:41:16.754Z,8.3
2019-04-10T00:44:11.550Z,8.3
2019-04-10T00:47:06.980Z,8.3
2019-04-10T00:50:02.267Z,8.3
2019-04-10T00:52:57.159Z,8.3
2019-04-10T00:55:52.209Z,8.2
2019-04-10T00:58:46.293Z,8.2
2019-04-10T01:01:41.366Z,8.2
2019-04-10T01:04:36.595Z,8.2
2019-04-10T01:07:41.032Z,8.2
2019-04-10T01:10:26.691Z,8.1
2019-04-10T01:13:21.728Z,8.2
2019-04-10T01:16:18.221Z,8.1
2019-04-10T01:19:12.470Z,8.2
2019-04-10T01:22:06.980Z,8.2
2019-04-10T01:25:02.612Z,8.2
2019-04-10T01:27:57.118Z,8.2
2019-04-10T01:30:53.152Z,8.2
2019-04-10T01:33:47.824Z,8.2
2019-04-10T01:36:42.341Z,8.2
2019-04-10T01:39:38.475Z,8.2
2019-04-10T01:42:32.798Z,8.2
2019-04-10T01:45:27.684Z,8.2
2019-04-10T01:48:22.507Z,8.1
2019-04-10T01:51:17.619Z,8.1
2019-04-10T01:54:13.454Z,8.1
2019-04-10T01:57:08.586Z,8
2019-04-10T02:00:03.171Z,7.9
2019-04-10T02:02:58.377Z,7.9
2019-04-10T02:05:53.089Z,7.9
2019-04-10T02:08:48.227Z,7.8
2019-04-10T02:11:42.991Z,7.7
2019-04-10T02:14:38.983Z,7.7
2019-04-10T02:17:33.077Z,7.7
2019-04-10T02:20:27.965Z,7.6
2019-04-10T02:23:23.001Z,7.6
2019-04-10T02:26:19.107Z,7.7
2019-04-10T02:29:12.998Z,7.7
2019-04-10T02:32:08.470Z,7.5
2019-04-10T02:35:06.652Z,7.5
2019-04-10T02:38:21.065Z,7.5
2019-04-10T02:40:55.307Z,7.5
2019-04-10T02:43:48.016Z,7.4
2019-04-10T02:46:43.205Z,7.4
2019-04-10T02:49:40.303Z,7.5
2019-04-10T02:52:34.908Z,7.5
2019-04-10T02:55:29.075Z,7.6
2019-04-10T02:58:24.165Z,7.6
2019-04-10T03:01:19.394Z,7.6
2019-04-10T03:04:13.773Z,7.6
2019-04-10T03:07:09.521Z,7.5
2019-04-10T03:10:26.227Z,7.5
2019-04-10T03:13:00.558Z,7.5
2019-04-10T03:15:55.720Z,7.6
2019-04-10T03:18:47.747Z,7.6
2019-04-10T03:21:43.434Z,7.6
2019-04-10T03:24:38.543Z,7.6
2019-04-10T03:27:32.864Z,7.6
2019-04-10T03:30:31.811Z,7.7
2019-04-10T03:33:30.829Z,7.7
2019-04-10T03:36:19.018Z,7.7
2019-04-10T03:39:13.650Z,7.7
2019-04-10T03:42:08.904Z,7.7
2019-04-10T03:45:03.698Z,7.7
2019-04-10T03:47:58.436Z,7.6
2019-04-10T03:50:52.948Z,7.6
2019-04-10T03:53:49.038Z,7.6
2019-04-10T03:56:42.948Z,7.5
2019-04-10T03:59:41.682Z,7.5
2019-04-10T04:02:33.043Z,7.4
2019-04-10T04:05:29.181Z,7.4
2019-04-10T04:08:23.924Z,7.4
2019-04-10T04:11:17.843Z,7.4
2019-04-10T04:14:12.924Z,7.5
2019-04-10T04:17:08.077Z,7.5
2019-04-10T04:20:02.998Z,7.5
2019-04-10T04:22:58.074Z,7.5
2019-04-10T04:25:53.024Z,7.6
2019-04-10T04:28:48.002Z,7.6
2019-04-10T04:31:43.865Z,7.6
2019-04-10T04:34:38.843Z,7.6
2019-04-10T04:37:33.990Z,7.6
2019-04-10T04:40:28.318Z,7.6
2019-04-10T04:43:23.757Z,7.6
2019-04-10T04:46:18.788Z,7.6
2019-04-10T04:49:14.080Z,7.6
2019-04-10T04:52:13.105Z,7.5
2019-04-10T04:55:04.303Z,7.5
2019-04-10T04:57:58.186Z,7.5
2019-04-10T05:00:54.129Z,7.6
2019-04-10T05:03:48.851Z,7.6
2019-04-10T05:06:44.135Z,7.6
2019-04-10T05:09:40.696Z,7.6
2019-04-10T05:12:34.272Z,7.6
2019-04-10T05:15:29.412Z,7.6
2019-04-10T05:18:23.597Z,7.6
2019-04-10T05:21:19.498Z,7.6
2019-04-10T05:24:14.116Z,7.6
2019-04-10T05:27:08.326Z,7.6
2019-04-10T05:30:04.498Z,7.7
2019-04-10T05:32:58.339Z,7.7
2019-04-10T05:35:53.373Z,7.8
2019-04-10T05:38:48.661Z,7.8
2019-04-10T05:41:44.367Z,7.7
2019-04-10T05:44:38.584Z,7.7
2019-04-10T05:47:34.446Z,7.8
2019-04-10T05:50:28.486Z,7.7
2019-04-10T05:53:24.332Z,7.8
2019-04-10T05:56:20.562Z,7.8
2019-04-10T05:59:16.216Z,7.8
2019-04-10T06:02:09.753Z,7.8
2019-04-10T06:05:03.643Z,7.8
2019-04-10T06:07:59.711Z,7.8
2019-04-10T06:10:53.695Z,7.7
2019-04-10T06:13:49.006Z,7.6
2019-04-10T06:16:45.085Z,7.6
2019-04-10T06:19:38.702Z,7.7
2019-04-10T06:22:35.047Z,7.7
2019-04-10T06:25:31.584Z,7.7
2019-04-10T06:28:27.502Z,7.7
2019-04-10T06:31:19.133Z,7.7
2019-04-10T06:34:18.576Z,7.7
2019-04-10T06:37:09.923Z,7.8
2019-04-10T06:40:19.073Z,7.8
2019-04-10T06:43:00.924Z,7.7
2019-04-10T06:45:53.912Z,7.8
2019-04-10T06:48:49.730Z,7.8
2019-04-10T06:51:44.871Z,7.9
2019-04-10T06:54:39.006Z,7.9
2019-04-10T06:57:51.705Z,7.9
2019-04-10T07:00:29.083Z,7.9
2019-04-10T07:03:25.204Z,8
2019-04-10T07:06:26.628Z,7.9
2019-04-10T07:09:14.307Z,7.9
2019-04-10T07:12:10.011Z,8
2019-04-10T07:15:04.651Z,8
2019-04-10T07:17:59.282Z,8
2019-04-10T07:21:01.561Z,7.9
2019-04-10T07:23:49.438Z,8
2019-04-10T07:26:48.988Z,8.1
2019-04-10T07:29:40.343Z,8.2
2019-04-10T07:32:34.398Z,8.2
2019-04-10T07:35:35.407Z,8.3
2019-04-10T07:38:25.064Z,8.3
2019-04-10T07:41:25.686Z,8.4
2019-04-10T07:44:14.497Z,8.5
2019-04-10T07:47:09.541Z,8.5
2019-04-10T07:50:08.527Z,8.5
2019-04-10T07:53:00.255Z,8.6
2019-04-10T07:56:06.784Z,8.6
2019-04-10T07:58:49.916Z,8.8
2019-04-10T08:01:45.045Z,8.8
2019-04-10T08:04:40.223Z,8.9
2019-04-10T08:07:40.408Z,8.9
2019-04-10T08:10:31.104Z,9
2019-04-10T08:13:26.700Z,9
2019-04-10T08:16:21.440Z,9.1
2019-04-10T08:19:16.987Z,9.2
2019-04-10T08:22:10.995Z,9.2
2019-04-10T08:25:06.950Z,9.2
2019-04-10T08:28:01.225Z,9.2
2019-04-10T08:30:58.854Z,9.2
2019-04-10T08:33:52.605Z,9.3
2019-04-10T08:36:47.817Z,9.3
2019-04-10T08:39:47.956Z,9.3
2019-04-10T08:42:37.704Z,9.3
2019-04-10T08:45:46.985Z,9.2
2019-04-10T08:48:31.489Z,9.3
2019-04-10T08:51:23.406Z,9.3
2019-04-10T08:54:18.318Z,9.3
2019-04-10T08:57:13.678Z,9.1
2019-04-10T09:00:08.574Z,9.1
2019-04-10T09:03:02.870Z,9.3
2019-04-10T09:05:58.741Z,9.4
2019-04-10T09:08:53.476Z,9.4
2019-04-10T09:11:47.938Z,9.4
2019-04-10T09:14:43.811Z,9.3
2019-04-10T09:17:38.188Z,9.4
2019-04-10T09:20:33.534Z,9.5
2019-04-10T09:23:47.178Z,9.5
2019-04-10T09:26:24.814Z,9.6
2019-04-10T09:29:21.341Z,9.6
2019-04-10T09:32:14.997Z,9.7
2019-04-10T09:35:09.321Z,9.8
2019-04-10T09:38:04.635Z,9.8
2019-04-10T09:40:59.506Z,9.8
2019-04-10T09:43:54.639Z,9.7
2019-04-10T09:46:50.029Z,9.8
2019-04-10T09:49:47.368Z,9.8
2019-04-10T09:52:40.162Z,9.7
2019-04-10T09:55:36.259Z,9.7
2019-04-10T09:58:30.510Z,9.7
2019-04-10T10:01:27.513Z,9.7
2019-04-10T10:04:21.923Z,9.7
2019-04-10T10:07:16.807Z,9.7
2019-04-10T10:10:11.242Z,9.7
2019-04-10T10:13:07.409Z,9.6
2019-04-10T10:16:01.561Z,9.6
2019-04-10T10:18:57.760Z,9.7
2019-04-10T10:21:52.886Z,9.7
2019-04-10T10:24:47.217Z,9.7
2019-04-10T10:27:43.084Z,9.7
2019-04-10T10:30:38.064Z,9.7
2019-04-10T10:33:32.477Z,9.6
2019-04-10T10:36:43.294Z,9.6
2019-04-10T10:39:23.484Z,9.6
2019-04-10T10:42:19.196Z,9.7
2019-04-10T10:45:13.054Z,9.7
2019-04-10T10:48:09.170Z,9.7
2019-04-10T10:51:04.503Z,9.6
2019-04-10T10:54:02.971Z,9.6
2019-04-10T10:56:53.645Z,9.7
2019-04-10T10:59:49.766Z,9.7
2019-04-10T11:02:44.071Z,9.7
2019-04-10T11:05:39.187Z,9.7
2019-04-10T11:08:35.272Z,9.6
2019-04-10T11:11:30.654Z,9.6
2019-04-10T11:14:25.697Z,9.5
2019-04-10T11:17:20.365Z,9.6
2019-04-10T11:20:15.651Z,9.5
2019-04-10T11:23:10.072Z,9.6
2019-04-10T11:26:05.158Z,9.6
2019-04-10T11:29:01.861Z,9.5
2019-04-10T11:31:56.008Z,9.6
2019-04-10T11:34:51.112Z,9.6
2019-04-10T11:37:47.863Z,9.6
2019-04-10T11:40:41.979Z,9.7
2019-04-10T11:43:38.122Z,9.6
2019-04-10T11:48:32.369Z,9.6
2019-04-10T11:49:30.991Z,9.6
2019-04-10T11:52:39.469Z,9.7
2019-04-10T11:57:22.741Z,9.6
2019-04-10T12:00:19.524Z,9.6
2019-04-10T12:01:08.940Z,9.7
2019-04-10T12:04:08.547Z,9.7
2019-04-10T12:07:02.162Z,9.7
2019-04-10T12:12:48.569Z,9.7
2019-04-10T12:15:43.503Z,9.6
2019-04-10T12:18:38.779Z,9.7
2019-04-10T12:21:34.035Z,9.7
2019-04-10T12:24:28.134Z,9.7
2019-04-10T12:27:23.467Z,9.7
2019-04-10T12:30:19.371Z,9.6
2019-04-10T12:33:14.003Z,9.6
2019-04-10T12:36:08.595Z,9.6
2019-04-10T12:39:04.145Z,9.7
2019-04-10T12:41:59.987Z,9.7
2019-04-10T12:44:53.964Z,9.7
2019-04-10T12:47:50.175Z,9.6
2019-04-10T12:50:45.097Z,9.6
2019-04-10T12:53:40.411Z,9.6
2019-04-10T12:56:35.009Z,9.6
2019-04-10T12:59:29.466Z,9.6
2019-04-10T13:02:24.552Z,9.6
2019-04-10T13:05:20.908Z,9.6
2019-04-10T13:08:27.251Z,9.6
2019-04-10T13:11:10.553Z,9.5
2019-04-10T13:14:04.874Z,9.4
2019-04-10T13:17:00.975Z,9.4
2019-04-10T13:19:56.041Z,9.4
2019-04-10T13:22:51.065Z,9.5
2019-04-10T13:26:00.705Z,9.4
2019-04-10T13:28:40.089Z,9.3
2019-04-10T13:31:35.538Z,9.3
2019-04-10T13:34:30.176Z,9.3
2019-04-10T13:37:26.045Z,9.3
2019-04-10T13:40:20.184Z,9.3
2019-04-10T13:43:16.338Z,9.3
2019-04-10T13:46:11.225Z,9.3
2019-04-10T13:49:06.361Z,9.2
2019-04-10T13:52:00.239Z,9.2
2019-04-10T13:54:55.245Z,9.1
2019-04-10T13:57:51.218Z,9.2
2019-04-10T14:00:45.548Z,9.2
2019-04-10T14:03:43.849Z,9.2
2019-04-10T14:06:36.398Z,9.2
2019-04-10T14:09:48.160Z,9.2
2019-04-10T14:12:25.402Z,9.2
2019-04-10T14:15:20.649Z,9.2
2019-04-10T14:18:16.525Z,9.2
2019-04-10T14:21:15.974Z,9.2
2019-04-10T14:24:05.739Z,9.2
2019-04-10T14:27:00.584Z,9.2
2019-04-10T14:29:56.550Z,9.2
2019-04-10T14:32:51.892Z,9.1
2019-04-10T14:35:45.776Z,9.2
2019-04-10T14:38:41.646Z,9.2
2019-04-10T14:41:36.388Z,9.1
2019-04-10T14:44:31.050Z,9
2019-04-10T14:47:25.968Z,9
2019-04-10T14:50:21.848Z,9
2019-04-10T14:53:17.127Z,9.1
2019-04-10T14:56:10.849Z,9.1
2019-04-10T14:59:05.864Z,9.1
2019-04-10T15:02:01.911Z,9
2019-04-10T15:04:56.000Z,8.9
2019-04-10T15:07:51.504Z,9
2019-04-10T15:10:46.035Z,9
2019-04-10T15:13:42.298Z,9
2019-04-10T15:19:32.198Z,8.8
2019-04-10T15:34:06.120Z,8.8
2019-04-10T15:37:01.445Z,8.9
2019-04-10T15:39:56.434Z,8.8
2019-04-10T15:42:52.151Z,8.8
2019-04-10T15:45:46.789Z,8.8
2019-04-10T15:48:42.249Z,8.8
2019-04-10T15:51:36.761Z,8.7
2019-04-10T15:54:32.529Z,8.8
2019-04-10T15:57:27.332Z,8.7
2019-04-10T16:00:21.617Z,8.7
2019-04-10T16:03:17.444Z,8.8
2019-04-10T16:06:11.578Z,8.7
2019-04-10T16:09:07.541Z,8.7
2019-04-10T16:12:02.578Z,8.7
2019-04-10T16:14:57.447Z,8.7
2019-04-10T16:17:52.880Z,8.7
2019-04-10T16:20:47.669Z,8.7
2019-04-10T16:29:32.222Z,8.7
2019-04-10T16:32:26.616Z,8.7
2019-04-10T16:35:21.513Z,8.7
2019-04-10T16:44:06.177Z,8.7
2019-04-10T16:55:47.087Z,8.7
2019-04-10T17:01:36.987Z,8.7
2019-04-10T17:07:27.199Z,8.6
2019-04-10T17:16:11.051Z,8.6
2019-04-10T17:22:00.946Z,8.6
2019-04-10T17:24:56.237Z,8.7
2019-04-10T17:27:52.047Z,8.6
2019-04-10T17:30:46.807Z,8.6
2019-04-10T17:36:37.230Z,8.6
2019-04-10T17:45:21.050Z,8.6
2019-04-10T17:59:57.011Z,8.6
2019-04-10T18:05:47.185Z,8.6
2019-04-10T18:11:35.990Z,8.5
2019-04-10T18:23:16.107Z,8.5
2019-04-10T18:29:06.416Z,8.5
2019-04-10T18:32:02.805Z,8.5
2019-04-10T18:34:56.227Z,8.5
2019-04-10T18:37:51.238Z,8.4
2019-04-10T18:46:37.510Z,8.4
2019-04-10T18:52:27.247Z,8.4
2019-04-10T18:55:22.482Z,8.4
2019-04-10T19:01:15.779Z,8.4
2019-04-10T19:07:01.397Z,8.4
2019-04-10T19:09:57.037Z,8.4
2019-04-10T19:12:51.397Z,8.4
2019-04-10T19:15:47.378Z,8.4
2019-04-10T19:21:37.493Z,8.4
2019-04-10T19:24:33.870Z,8.4
2019-04-10T19:27:28.355Z,8.4
2019-04-10T19:30:21.600Z,8.4
2019-04-10T19:33:16.611Z,8.4
2019-04-10T19:36:12.395Z,8.4
2019-04-10T19:39:07.717Z,8.4
2019-04-10T19:42:02.738Z,8.3
2019-04-10T19:44:57.722Z,8.4
2019-04-10T19:47:52.713Z,8.3
2019-04-10T19:53:42.183Z,8.4
2019-04-10T19:56:36.963Z,8.4
2019-04-10T19:59:32.019Z,8.4
2019-04-10T20:05:21.582Z,8.3
2019-04-10T20:08:17.549Z,8.3
2019-04-10T20:11:12.811Z,8.3
2019-04-10T20:19:59.770Z,8.3
2019-04-10T20:28:41.745Z,8.2
2019-04-10T20:37:27.325Z,8.2
2019-04-10T20:52:02.439Z,8.1
2019-04-10T20:54:57.616Z,8.1
2019-04-10T21:00:47.490Z,8.1
2019-04-10T21:03:42.482Z,8.2
2019-04-10T21:06:40.583Z,8.2
2019-04-10T21:24:07.255Z,8.2
2019-04-10T21:29:57.419Z,8.1
2019-04-10T21:50:21.909Z,8.1
2019-04-10T21:53:16.863Z,8.1
2019-04-10T21:56:11.154Z,8.2
2019-04-10T21:59:06.164Z,8.1
2019-04-10T22:02:01.175Z,8.1
2019-04-10T22:04:56.159Z,8.2
2019-04-10T22:07:52.061Z,8.1
2019-04-10T22:10:46.170Z,8.1
2019-04-10T22:13:41.162Z,8.1
2019-04-10T22:16:36.194Z,8.1
2019-04-10T22:19:31.189Z,8
2019-04-10T22:22:27.106Z,8
2019-04-10T22:25:21.991Z,8
2019-04-10T22:28:17.344Z,8
2019-04-10T22:34:06.069Z,7.9
2019-04-10T22:37:02.106Z,8
2019-04-10T22:39:57.036Z,7.9
2019-04-10T22:48:42.016Z,8
2019-04-10T22:54:30.896Z,7.9
2019-04-10T22:57:27.025Z,7.9
2019-04-10T23:00:20.814Z,7.9
2019-04-10T23:03:16.228Z,7.9
2019-04-10T23:06:11.482Z,7.9
2019-04-10T23:09:06.936Z,7.9
2019-04-10T23:12:02.693Z,7.9
2019-04-10T23:17:51.159Z,7.9
2019-04-10T23:20:45.555Z,7.9
2019-04-10T23:32:25.370Z,7.7
2019-04-10T23:44:05.188Z,7.8
2019-04-10T23:49:55.311Z,7.7
2019-04-10T23:55:45.977Z,7.6
2019-04-10T23:58:40.862Z,7.7
